createdAt,value
2022-12-24T00:01:37.580Z,31.50
2022-12-24T00:04:08.554Z,33.30
2022-12-24T00:06:36.704Z,29.70
2022-12-24T00:09:04.822Z,31.20
2022-12-24T00:11:33.031Z,33.40
2022-12-24T00:14:01.196Z,32.90
2022-12-24T00:16:29.480Z,33.80
2022-12-24T00:18:57.660Z,29.50
2022-12-24T00:21:25.863Z,30.20
2022-12-24T00:23:54.053Z,30.10
2022-12-24T00:26:22.237Z,34.80
2022-12-24T00:28:50.699Z,32.90
2022-12-24T00:31:19.569Z,33.90
2022-12-24T00:33:47.927Z,33.40
2022-12-24T00:36:16.968Z,30.70
2022-12-24T00:38:46.076Z,30.90
2022-12-24T00:41:29.312Z,33.10
2022-12-24T00:44:02.492Z,36.10
2022-12-24T00:46:32.816Z,37.00
2022-12-24T00:49:01.820Z,36.00
2022-12-24T00:51:30.460Z,34.10
2022-12-24T00:53:59.101Z,35.50
2022-12-24T00:56:27.595Z,35.40
2022-12-24T00:58:56.540Z,36.50
2022-12-24T01:01:26.638Z,35.40
2022-12-24T01:04:15.805Z,31.60
2022-12-24T01:06:44.696Z,30.50
2022-12-24T01:09:12.934Z,28.60
2022-12-24T01:11:41.007Z,30.20
2022-12-24T01:14:09.197Z,33.60
2022-12-24T01:16:37.356Z,32.10
2022-12-24T01:19:05.718Z,32.00
2022-12-24T01:21:33.886Z,31.00
2022-12-24T01:24:02.099Z,31.80
2022-12-24T01:26:30.194Z,33.50
2022-12-24T01:28:59.721Z,32.70
2022-12-24T01:31:27.886Z,31.80
2022-12-24T01:33:56.081Z,32.60
2022-12-24T01:36:24.557Z,32.40
2022-12-24T01:38:52.710Z,32.80
2022-12-24T01:41:42.101Z,33.20
2022-12-24T01:44:37.089Z,31.30
2022-12-24T01:47:28.347Z,32.20
2022-12-24T01:50:04.526Z,31.40
2022-12-24T01:52:36.309Z,29.20
2022-12-24T01:55:11.278Z,32.50
2022-12-24T01:57:48.483Z,31.00
2022-12-24T02:00:17.094Z,31.60
2022-12-24T02:02:50.247Z,32.30
2022-12-24T02:05:32.224Z,31.60
2022-12-24T02:08:02.887Z,30.40
2022-12-24T02:10:31.279Z,33.00
2022-12-24T02:13:01.112Z,32.60
2022-12-24T02:15:58.390Z,34.30
2022-12-24T02:18:49.165Z,35.10
2022-12-24T02:21:45.822Z,33.40
2022-12-24T02:25:01.722Z,35.10
2022-12-24T02:30:21.810Z,32.60
2022-12-24T02:33:05.643Z,30.70
2022-12-24T02:36:05.223Z,30.40
2022-12-24T02:39:14.742Z,28.50
2022-12-24T02:42:06.362Z,29.70
2022-12-24T02:44:51.125Z,29.10
2022-12-24T02:47:23.343Z,31.00
2022-12-24T02:49:51.621Z,30.30
2022-12-24T02:52:40.067Z,31.60
2022-12-24T02:55:15.800Z,32.20
2022-12-24T02:57:54.043Z,34.30
2022-12-24T03:00:24.559Z,33.90
2022-12-24T03:03:26.631Z,36.60
2022-12-24T03:06:11.844Z,33.40
2022-12-24T03:09:14.675Z,34.10
2022-12-24T03:11:50.813Z,37.20
2022-12-24T03:14:21.065Z,36.10
2022-12-24T03:16:50.322Z,29.30
2022-12-24T03:19:20.653Z,32.50
2022-12-24T03:21:50.574Z,34.80
2022-12-24T03:24:19.908Z,35.40
2022-12-24T03:26:47.980Z,34.40
2022-12-24T03:29:17.832Z,36.90
2022-12-24T03:31:53.193Z,35.40
2022-12-24T03:34:21.396Z,31.00
2022-12-24T03:36:49.958Z,32.60
2022-12-24T03:39:18.473Z,33.30
2022-12-24T03:41:47.697Z,36.40
2022-12-24T03:44:15.805Z,37.40
2022-12-24T03:46:43.903Z,35.90
2022-12-24T03:49:12.067Z,35.50
2022-12-24T03:51:40.143Z,36.40
2022-12-24T03:54:08.308Z,38.30
2022-12-24T03:56:36.356Z,37.40
2022-12-24T03:59:04.598Z,38.70
2022-12-24T04:01:32.781Z,37.30
2022-12-24T04:04:01.012Z,32.50
2022-12-24T04:06:29.166Z,34.40
2022-12-24T04:08:59.307Z,36.50
2022-12-24T04:11:27.619Z,35.20
2022-12-24T04:13:55.642Z,35.40
2022-12-24T04:16:24.027Z,32.90
2022-12-24T04:18:52.359Z,36.40
2022-12-24T04:21:20.600Z,37.20
2022-12-24T04:23:48.867Z,40.30
2022-12-24T04:26:17.087Z,38.80
2022-12-24T04:28:45.256Z,35.40
2022-12-24T04:31:16.914Z,31.80
2022-12-24T04:33:46.301Z,37.80
2022-12-24T04:36:18.053Z,40.00
2022-12-24T04:38:47.998Z,34.20
2022-12-24T04:41:24.279Z,35.30
2022-12-24T04:43:54.857Z,35.30
2022-12-24T04:46:27.108Z,33.20
2022-12-24T04:48:55.457Z,35.30
2022-12-24T04:51:25.873Z,33.70
2022-12-24T04:53:54.970Z,26.80
2022-12-24T04:56:27.511Z,34.10
2022-12-24T04:58:56.152Z,34.40
2022-12-24T05:01:28.237Z,30.20
2022-12-24T05:03:56.856Z,34.70
2022-12-24T05:06:30.670Z,33.50
2022-12-24T05:08:59.392Z,33.00
2022-12-24T05:11:28.554Z,35.10
2022-12-24T05:13:57.960Z,33.80
2022-12-24T05:16:26.178Z,34.50
2022-12-24T05:18:54.884Z,35.60
2022-12-24T05:21:25.241Z,32.50
2022-12-24T05:24:12.610Z,31.90
2022-12-24T05:26:53.551Z,33.50
2022-12-24T05:29:22.406Z,32.00
2022-12-24T05:31:50.902Z,31.20
2022-12-24T05:34:19.093Z,32.70
2022-12-24T05:36:47.233Z,30.10
2022-12-24T05:39:18.158Z,31.10
2022-12-24T05:41:46.884Z,29.50
2022-12-24T05:44:16.312Z,31.20
2022-12-24T05:46:44.789Z,26.50
2022-12-24T05:49:13.968Z,33.80
2022-12-24T05:51:42.282Z,33.70
2022-12-24T05:54:11.061Z,31.10
2022-12-24T05:56:39.162Z,31.80
2022-12-24T05:59:07.424Z,32.50
2022-12-24T06:01:35.715Z,33.30
2022-12-24T06:04:04.581Z,30.70
2022-12-24T06:06:32.996Z,28.70
2022-12-24T06:09:01.254Z,28.40
2022-12-24T06:11:30.528Z,26.90
2022-12-24T06:13:58.667Z,26.10
2022-12-24T06:16:27.115Z,25.80
2022-12-24T06:18:55.986Z,25.50
2022-12-24T06:21:24.242Z,26.60
2022-12-24T06:23:52.532Z,26.70
2022-12-24T06:26:23.196Z,26.80
2022-12-24T06:28:52.377Z,26.20
2022-12-24T06:31:23.747Z,24.80
2022-12-24T06:33:53.423Z,27.60
2022-12-24T06:36:25.163Z,25.90
2022-12-24T06:38:55.191Z,27.20
2022-12-24T06:41:24.100Z,28.00
2022-12-24T06:43:53.799Z,26.00
2022-12-24T06:46:22.484Z,28.60
2022-12-24T06:48:51.157Z,25.80
2022-12-24T06:51:20.090Z,26.00
2022-12-24T06:53:53.040Z,26.70
2022-12-24T06:56:22.030Z,23.70
2022-12-24T06:58:50.336Z,24.70
2022-12-24T07:01:21.309Z,26.30
2022-12-24T07:03:50.493Z,25.90
2022-12-24T07:06:25.673Z,32.50
2022-12-24T07:08:53.958Z,25.50
2022-12-24T07:11:24.221Z,22.90
2022-12-24T07:13:52.717Z,26.70
2022-12-24T07:16:21.796Z,25.20
2022-12-24T07:18:50.155Z,24.70
2022-12-24T07:21:18.347Z,24.90
2022-12-24T07:23:46.556Z,29.90
2022-12-24T07:26:14.878Z,26.60
2022-12-24T07:28:43.075Z,25.90
2022-12-24T07:31:11.301Z,29.70
2022-12-24T07:33:39.715Z,24.80
2022-12-24T07:36:14.789Z,26.90
2022-12-24T07:38:42.930Z,25.00
2022-12-24T07:41:11.621Z,26.50
2022-12-24T07:43:39.929Z,25.10
2022-12-24T07:46:08.350Z,25.40
2022-12-24T07:48:36.585Z,22.70
2022-12-24T07:51:05.418Z,26.90
2022-12-24T07:53:33.631Z,26.60
2022-12-24T07:56:04.285Z,28.80
2022-12-24T07:58:35.864Z,24.90
2022-12-24T08:01:04.043Z,26.70
2022-12-24T08:03:32.363Z,27.50
2022-12-24T08:06:01.077Z,26.60
2022-12-24T08:08:29.770Z,29.50
2022-12-24T08:11:03.775Z,24.90
2022-12-24T08:13:32.967Z,23.70
2022-12-24T08:16:01.205Z,26.10
2022-12-24T08:18:29.496Z,22.90
2022-12-24T08:20:57.860Z,21.80
2022-12-24T08:23:26.411Z,24.90
2022-12-24T08:25:54.614Z,23.80
2022-12-24T08:28:22.804Z,25.60
2022-12-24T08:30:51.840Z,24.30
2022-12-24T08:33:22.273Z,26.20
2022-12-24T08:35:53.108Z,24.90
2022-12-24T08:38:23.327Z,24.10
2022-12-24T08:40:54.948Z,23.40
2022-12-24T08:43:25.497Z,25.20
2022-12-24T08:45:54.359Z,25.70
2022-12-24T08:48:22.618Z,23.50
2022-12-24T08:50:50.659Z,22.90
2022-12-24T08:53:18.819Z,23.60
2022-12-24T08:55:52.126Z,24.00
2022-12-24T08:58:24.227Z,24.40
2022-12-24T09:00:52.472Z,24.40
2022-12-24T09:03:27.010Z,22.20
2022-12-24T09:05:56.161Z,24.10
2022-12-24T09:08:24.407Z,24.00
2022-12-24T09:10:52.610Z,24.30
2022-12-24T09:13:20.761Z,26.70
2022-12-24T09:15:55.949Z,25.40
2022-12-24T09:18:25.217Z,24.40
2022-12-24T09:21:03.644Z,25.30
2022-12-24T09:23:33.913Z,23.70
2022-12-24T09:26:07.359Z,25.10
2022-12-24T09:28:36.073Z,27.70
2022-12-24T09:31:05.557Z,26.10
2022-12-24T09:33:39.799Z,25.60
2022-12-24T09:36:08.472Z,26.40
2022-12-24T09:38:37.787Z,27.10
2022-12-24T09:41:24.560Z,26.60
2022-12-24T09:44:07.197Z,25.90
2022-12-24T09:46:42.161Z,25.70
2022-12-24T09:49:19.053Z,22.80
2022-12-24T09:51:57.529Z,28.30
2022-12-24T09:54:37.346Z,27.30
2022-12-24T09:57:28.285Z,30.10
2022-12-24T09:59:56.667Z,26.50
2022-12-24T10:02:24.883Z,26.80
2022-12-24T10:04:55.019Z,26.00
2022-12-24T10:07:37.280Z,28.40
2022-12-24T10:10:42.694Z,25.70
2022-12-24T10:13:38.249Z,27.10
2022-12-24T10:16:38.619Z,25.30
2022-12-24T10:19:31.581Z,25.00
2022-12-24T10:22:40.418Z,24.80
2022-12-24T10:25:34.999Z,23.50
2022-12-24T10:28:12.966Z,25.80
2022-12-24T10:30:42.653Z,31.00
2022-12-24T10:33:29.545Z,27.90
2022-12-24T10:35:58.878Z,28.40
2022-12-24T10:38:26.995Z,27.30
2022-12-24T10:40:59.510Z,29.20
2022-12-24T10:43:30.474Z,29.60
2022-12-24T10:46:03.287Z,27.40
2022-12-24T10:48:50.569Z,28.40
2022-12-24T10:51:56.278Z,26.10
2022-12-24T10:54:28.202Z,26.00
2022-12-24T10:57:02.634Z,29.10
2022-12-24T10:59:50.525Z,27.60
2022-12-24T11:02:33.613Z,25.40
2022-12-24T11:05:07.562Z,30.10
2022-12-24T11:07:35.752Z,28.60
2022-12-24T11:10:08.851Z,28.20
2022-12-24T11:13:05.778Z,30.70
2022-12-24T11:15:37.802Z,26.00
2022-12-24T11:18:14.836Z,23.90
2022-12-24T11:20:51.294Z,25.90
2022-12-24T11:23:19.969Z,28.80
2022-12-24T11:25:51.208Z,27.50
2022-12-24T11:28:33.609Z,32.30
2022-12-24T11:31:33.042Z,28.70
2022-12-24T11:34:01.307Z,31.40
2022-12-24T11:36:30.421Z,29.40
2022-12-24T11:38:59.266Z,32.40
2022-12-24T11:41:37.600Z,34.40
2022-12-24T11:44:07.968Z,31.10
2022-12-24T11:46:47.183Z,35.20
2022-12-24T11:49:26.596Z,30.50
2022-12-24T11:52:11.232Z,33.00
2022-12-24T11:55:15.952Z,27.00
2022-12-24T11:58:40.733Z,32.80
2022-12-24T12:01:36.410Z,28.80
2022-12-24T12:04:20.828Z,35.50
2022-12-24T12:07:01.792Z,29.00
2022-12-24T12:09:40.876Z,31.80
2022-12-24T12:12:22.441Z,33.30
2022-12-24T12:14:55.373Z,31.40
2022-12-24T12:18:01.524Z,32.70
2022-12-24T12:20:44.919Z,32.80
2022-12-24T12:23:37.179Z,32.20
2022-12-24T12:26:18.251Z,40.90
2022-12-24T12:29:24.573Z,32.10
2022-12-24T12:32:13.518Z,35.40
2022-12-24T12:35:15.973Z,36.10
2022-12-24T12:37:52.898Z,25.90
2022-12-24T12:40:25.384Z,35.40
2022-12-24T12:43:14.444Z,34.40
2022-12-24T12:46:00.448Z,34.50
2022-12-24T12:49:02.002Z,37.80
2022-12-24T12:52:42.048Z,35.90
2022-12-24T12:56:05.959Z,38.00
2022-12-24T12:59:07.494Z,35.10
2022-12-24T13:01:56.102Z,35.50
2022-12-24T13:04:39.352Z,37.90
2022-12-24T13:07:59.798Z,38.50
2022-12-24T13:10:37.108Z,35.20
2022-12-24T13:13:59.068Z,37.20
2022-12-24T13:16:33.403Z,34.90
2022-12-24T13:19:16.627Z,37.50
2022-12-24T13:21:49.006Z,35.10
2022-12-24T13:24:21.485Z,31.80
2022-12-24T13:27:29.333Z,32.00
2022-12-24T13:30:33.328Z,33.10
2022-12-24T13:33:01.523Z,32.70
2022-12-24T13:35:37.866Z,38.20
2022-12-24T13:38:30.933Z,36.20
2022-12-24T13:41:39.567Z,29.90
2022-12-24T13:44:13.236Z,33.30
2022-12-24T13:47:16.174Z,34.60
2022-12-24T13:49:49.653Z,33.80
2022-12-24T13:52:31.008Z,32.50
2022-12-24T13:54:59.093Z,31.60
2022-12-24T13:57:39.182Z,33.20
2022-12-24T14:00:25.881Z,36.30
2022-12-24T14:03:06.292Z,33.00
2022-12-24T14:05:44.953Z,34.60
2022-12-24T14:08:16.610Z,32.80
2022-12-24T14:11:05.230Z,33.80
2022-12-24T14:13:39.472Z,33.70
2022-12-24T14:16:43.998Z,34.40
2022-12-24T14:19:21.382Z,30.90
2022-12-24T14:22:02.318Z,33.80
2022-12-24T14:24:37.527Z,37.30
2022-12-24T14:27:18.894Z,37.10
2022-12-24T14:29:57.178Z,37.90
2022-12-24T14:32:25.318Z,36.20
2022-12-24T14:35:18.763Z,38.30
2022-12-24T14:38:15.433Z,35.50
2022-12-24T14:41:27.790Z,36.80
2022-12-24T14:44:32.282Z,39.30
2022-12-24T14:47:17.939Z,35.90
2022-12-24T14:50:39.834Z,35.70
2022-12-24T14:53:54.454Z,36.80
2022-12-24T14:56:23.316Z,35.10
2022-12-24T14:58:52.491Z,31.30
2022-12-24T15:01:36.317Z,33.80
2022-12-24T15:04:10.382Z,30.50
2022-12-24T15:06:56.920Z,33.00
2022-12-24T15:12:00.228Z,33.70
2022-12-24T15:14:30.874Z,33.70
2022-12-24T15:17:04.990Z,34.10
2022-12-24T15:19:45.617Z,32.50
2022-12-24T15:22:28.413Z,36.70
2022-12-24T15:24:57.002Z,39.30
2022-12-24T15:27:27.962Z,41.30
2022-12-24T15:29:58.427Z,52.40
2022-12-24T15:32:26.711Z,45.40
2022-12-24T15:34:56.146Z,42.10
2022-12-24T15:37:29.254Z,43.00
2022-12-24T15:40:19.417Z,45.70
2022-12-24T15:42:47.819Z,44.10
2022-12-24T15:45:21.650Z,40.50
2022-12-24T15:48:00.705Z,37.70
2022-12-24T15:50:34.254Z,41.60
2022-12-24T15:53:22.221Z,41.10
2022-12-24T15:56:00.583Z,41.90
2022-12-24T15:58:34.381Z,41.60
2022-12-24T16:01:15.368Z,42.10
2022-12-24T16:03:52.841Z,38.40
2022-12-24T16:06:22.604Z,43.60
2022-12-24T16:08:51.957Z,40.50
2022-12-24T16:11:35.545Z,37.50
2022-12-24T16:14:11.089Z,37.60
2022-12-24T16:16:48.270Z,40.90
2022-12-24T16:19:37.645Z,48.10
2022-12-24T16:22:29.197Z,34.30
2022-12-24T16:25:22.980Z,36.70
2022-12-24T16:27:52.843Z,40.20
2022-12-24T16:30:22.265Z,39.90
2022-12-24T16:32:51.122Z,39.60
2022-12-24T16:35:29.006Z,39.40
2022-12-24T16:37:57.117Z,40.90
2022-12-24T16:40:28.046Z,45.50
2022-12-24T16:43:16.098Z,46.40
2022-12-24T16:45:46.776Z,49.00
2022-12-24T16:48:23.400Z,40.80
2022-12-24T16:50:53.188Z,41.90
2022-12-24T16:53:22.708Z,47.50
2022-12-24T16:55:51.956Z,48.80
2022-12-24T16:58:21.367Z,48.00
2022-12-24T17:00:49.692Z,40.90
2022-12-24T17:03:17.935Z,47.90
2022-12-24T17:05:46.266Z,50.20
2022-12-24T17:08:14.542Z,46.90
2022-12-24T17:10:52.234Z,42.70
2022-12-24T17:13:20.398Z,43.20
2022-12-24T17:15:48.532Z,46.90
2022-12-24T17:18:17.684Z,45.40
2022-12-24T17:20:45.934Z,50.30
2022-12-24T17:23:14.042Z,45.20
2022-12-24T17:25:42.204Z,42.90
2022-12-24T17:28:10.326Z,44.40
2022-12-24T17:30:40.463Z,48.40
2022-12-24T17:33:14.408Z,47.00
2022-12-24T17:35:44.674Z,51.00
2022-12-24T17:38:12.877Z,44.00
2022-12-24T17:40:41.534Z,40.90
2022-12-24T17:43:09.849Z,51.50
2022-12-24T17:45:42.445Z,40.00
2022-12-24T17:48:10.568Z,39.70
2022-12-24T17:50:41.908Z,41.90
2022-12-24T17:53:10.169Z,44.60
2022-12-24T17:55:44.909Z,38.30
2022-12-24T17:58:15.201Z,42.50
2022-12-24T18:00:43.391Z,41.90
2022-12-24T18:03:14.313Z,41.10
2022-12-24T18:05:42.638Z,42.30
2022-12-24T18:08:10.804Z,42.40
2022-12-24T18:10:39.216Z,41.80
2022-12-24T18:13:11.494Z,43.30
2022-12-24T18:15:43.783Z,42.00
2022-12-24T18:18:11.963Z,40.60
2022-12-24T18:20:46.261Z,40.30
2022-12-24T18:23:16.432Z,40.40
2022-12-24T18:25:44.534Z,39.70
2022-12-24T18:28:12.711Z,39.70
2022-12-24T18:30:40.788Z,39.70
2022-12-24T18:33:09.044Z,41.60
2022-12-24T18:35:37.249Z,38.80
2022-12-24T18:38:05.687Z,37.80
2022-12-24T18:40:37.297Z,48.70
2022-12-24T18:43:05.537Z,43.20
2022-12-24T18:45:33.722Z,49.80
2022-12-24T18:48:01.831Z,42.90
2022-12-24T18:50:30.016Z,40.70
2022-12-24T18:52:58.189Z,35.40
2022-12-24T18:55:26.308Z,35.00
2022-12-24T18:57:54.554Z,32.30
2022-12-24T19:00:22.904Z,33.60
2022-12-24T19:02:51.108Z,30.40
2022-12-24T19:05:19.492Z,30.60
2022-12-24T19:07:47.850Z,27.00
2022-12-24T19:10:15.943Z,26.60
2022-12-24T19:12:44.046Z,30.60
2022-12-24T19:15:12.990Z,28.20
2022-12-24T19:17:42.154Z,39.50
2022-12-24T19:20:11.086Z,42.50
2022-12-24T19:22:39.279Z,35.60
2022-12-24T19:25:08.054Z,35.10
2022-12-24T19:27:36.229Z,24.20
2022-12-24T19:30:05.807Z,26.00
2022-12-24T19:32:33.923Z,26.50
2022-12-24T19:35:02.168Z,23.40
2022-12-24T19:37:30.301Z,23.50
2022-12-24T19:39:58.463Z,26.10
2022-12-24T19:42:26.714Z,20.80
2022-12-24T19:44:54.865Z,18.50
2022-12-24T19:47:23.029Z,18.20
2022-12-24T19:49:51.254Z,11.70
2022-12-24T19:52:19.487Z,10.60
2022-12-24T19:54:47.749Z,11.30
2022-12-24T19:57:15.902Z,10.20
2022-12-24T19:59:44.067Z,10.10
2022-12-24T20:02:12.450Z,9.60
2022-12-24T20:04:40.848Z,7.10
2022-12-24T20:07:09.065Z,6.80
2022-12-24T20:09:37.238Z,6.80
2022-12-24T20:12:05.901Z,5.80
2022-12-24T20:14:34.374Z,6.10
2022-12-24T20:17:03.279Z,5.90
2022-12-24T20:19:31.878Z,6.10
2022-12-24T20:21:59.988Z,4.90
2022-12-24T20:24:28.337Z,5.60
2022-12-24T20:26:56.513Z,4.90
2022-12-24T20:29:24.910Z,5.50
2022-12-24T20:31:53.057Z,5.60
2022-12-24T20:34:21.261Z,6.20
2022-12-24T20:36:49.468Z,6.70
2022-12-24T20:39:17.664Z,4.70
2022-12-24T20:41:45.915Z,6.70
2022-12-24T20:44:14.077Z,6.50
2022-12-24T20:46:42.282Z,7.10
2022-12-24T20:49:12.525Z,6.10
2022-12-24T20:51:40.709Z,5.60
2022-12-24T20:54:11.595Z,6.60
2022-12-24T20:56:39.761Z,5.90
2022-12-24T20:59:08.210Z,6.80
2022-12-24T21:01:39.017Z,6.60
2022-12-24T21:04:09.105Z,5.70
2022-12-24T21:06:38.369Z,5.70
2022-12-24T21:09:07.027Z,5.40
2022-12-24T21:11:50.332Z,6.80
2022-12-24T21:14:23.249Z,7.20
2022-12-24T21:16:53.972Z,6.30
2022-12-24T21:19:24.888Z,6.90
2022-12-24T21:21:53.401Z,6.60
2022-12-24T21:24:21.618Z,5.80
2022-12-24T21:26:49.802Z,6.70
2022-12-24T21:29:18.027Z,6.40
2022-12-24T21:31:46.152Z,6.00
2022-12-24T21:34:15.048Z,6.00
2022-12-24T21:36:43.265Z,6.70
2022-12-24T21:39:11.447Z,5.60
2022-12-24T21:41:39.604Z,6.10
2022-12-24T21:44:07.786Z,6.10
2022-12-24T21:46:35.930Z,5.80
2022-12-24T21:49:22.708Z,6.30
2022-12-24T21:51:50.891Z,6.20
2022-12-24T21:54:30.369Z,7.20
2022-12-24T21:57:21.339Z,5.80
2022-12-24T21:59:52.129Z,7.00
2022-12-24T22:02:24.930Z,6.40
2022-12-24T22:04:54.278Z,6.50
2022-12-24T22:07:46.537Z,5.80
2022-12-24T22:10:33.429Z,5.90
2022-12-24T22:13:06.426Z,5.30
2022-12-24T22:15:37.087Z,5.90
2022-12-24T22:18:05.267Z,6.60
2022-12-24T22:20:35.940Z,6.90
2022-12-24T22:23:04.402Z,8.10
2022-12-24T22:25:32.571Z,6.80
2022-12-24T22:28:00.780Z,6.90
2022-12-24T22:30:29.781Z,6.10
2022-12-24T22:32:58.964Z,7.40
2022-12-24T22:35:27.026Z,6.40
2022-12-24T22:37:59.910Z,6.10
2022-12-24T22:40:28.974Z,6.90
2022-12-24T22:42:57.285Z,6.50
2022-12-24T22:45:25.507Z,6.70
2022-12-24T22:47:53.751Z,6.40
2022-12-24T22:50:22.163Z,5.80
2022-12-24T22:52:50.347Z,6.10
2022-12-24T22:55:18.564Z,5.50
2022-12-24T22:57:47.099Z,6.50
2022-12-24T23:00:47.366Z,6.10
2022-12-24T23:03:15.720Z,6.10
2022-12-24T23:05:45.093Z,5.90
2022-12-24T23:08:14.015Z,6.30
2022-12-24T23:10:42.323Z,6.20
2022-12-24T23:13:31.895Z,6.10
2022-12-24T23:16:07.757Z,7.70
2022-12-24T23:18:35.953Z,6.10
2022-12-24T23:21:06.560Z,7.00
2022-12-24T23:23:37.223Z,7.10
2022-12-24T23:26:11.118Z,6.30
2022-12-24T23:28:40.073Z,6.00
2022-12-24T23:31:08.766Z,6.60
2022-12-24T23:33:37.380Z,5.80
2022-12-24T23:36:06.638Z,5.40
2022-12-24T23:38:35.406Z,7.20
2022-12-24T23:41:07.926Z,5.90
2022-12-24T23:43:37.051Z,5.90
2022-12-24T23:46:05.910Z,6.80
2022-12-24T23:48:34.155Z,6.30
2022-12-24T23:51:25.938Z,6.20
2022-12-24T23:53:56.884Z,6.80
2022-12-24T23:56:25.728Z,6.10
2022-12-24T23:58:55.279Z,7.20
